Emmanuel Tomasos — C6SS7 — position and weather

sailwx.info

Track history (hours):
 
Tides and Currents Weather Stations Pressure Air Temp Water Temp Dewpoint Dewpoint Depression Visibility Wind Speed Wind Dir Waves Ship Positions

Emmanuel Tomasos

Last reported at 2017-May-26 06:18 UTC. Time now 2017-May-28 12:33 UTC.
Position N 37°44' E 024°19'.

Length 182 m; draft 7 m.

Type: Tanker. MMSI: 311459000.

Date/timePositionNaut miles runAvg speedWind from/ knotsBaromVisibWave heightAir tempDewpointWater temp
2017-May-26 06:18N 37°44' E 024°19'1113.0
2017-May-26 05:29N 37°37' E 024°10'44112.0
2017-May-24 16:52N 36°08' E 015°10'513.7
2017-May-24 16:30N 36°10' E 015°04'713.8
2017-May-24 16:00N 36°12' E 014°56'714.1
2017-May-24 15:30N 36°15' E 014°47'713.9
2017-May-24 15:00N 36°17' E 014°39'713.9
2017-May-24 14:30N 36°19' E 014°31'1413.7
2017-May-24 13:30N 36°24' E 014°15'713.7
2017-May-24 13:00N 36°26' E 014°07'713.7
2017-May-24 12:30N 36°29' E 013°59'713.7
2017-May-24 12:00N 36°31' E 013°51'714.0
2017-May-24 11:30N 36°34' E 013°43'713.8
2017-May-24 11:00N 36°36' E 013°35'813.8
2017-May-24 10:27N 36°39' E 013°26'613.8
2017-May-24 10:00N 36°41' E 013°19'713.7
2017-May-24 09:30N 36°44' E 013°11'913.8
2017-May-24 08:53N 36°47' E 013°01'514.1
2017-May-24 08:30N 36°49' E 012°55'814.2
2017-May-24 07:56N 36°51' E 012°45'714.5
2017-May-24 07:27N 36°54' E 012°37'5013.9
2017-May-24 03:52N 37°12' E 011°39'613.2
2017-May-24 03:26N 37°14' E 011°32'1313.2
2017-May-24 02:25N 37°20' E 011°17'613.4
2017-May-24 02:00N 37°22' E 011°11'713.8
2017-May-24 01:28N 37°25' E 011°02'1014.2
2017-May-24 00:45N 37°28' E 010°50'5314.1
2017-May-23 21:00N 37°35' E 009°44'6313.3
2017-May-23 16:16N 37°37' E 008°25'413.3
2017-May-23 16:00N 37°37' E 008°21'12013.0
2017-May-23 06:46N 37°26' E 005°50'1412.6
2017-May-23 05:41N 37°24' E 005°33'612.8
2017-May-23 05:12N 37°24' E 005°26'312.7
2017-May-23 05:00N 37°24' E 005°22'612.8
2017-May-23 04:30N 37°23' E 005°14'612.6
2017-May-23 04:00N 37°23' E 005°07'612.9
2017-May-23 03:30N 37°22' E 004°58'713.0
2017-May-23 03:00N 37°21' E 004°50'613.0
2017-May-23 02:30N 37°21' E 004°42'713.1
2017-May-23 02:00N 37°20' E 004°34'713.1
2017-May-23 01:30N 37°20' E 004°26'613.1
2017-May-23 01:00N 37°19' E 004°18'713.2
2017-May-23 00:30N 37°18' E 004°09'713.0
2017-May-23 00:00N 37°18' E 004°01'613.0
2017-May-22 23:30N 37°17' E 003°53'713.1
2017-May-22 23:00N 37°17' E 003°45'713.0
2017-May-22 22:30N 37°16' E 003°37'713.0
2017-May-22 22:00N 37°15' E 003°28'612.9
2017-May-22 21:30N 37°15' E 003°20'712.9
2017-May-22 21:00N 37°14' E 003°12'612.8
2017-May-22 20:30N 37°14' E 003°04'612.8
2017-May-22 20:00N 37°13' E 002°56'612.8
2017-May-22 19:30N 37°12' E 002°48'612.8
2017-May-22 19:00N 37°12' E 002°40'612.6
2017-May-22 18:30N 37°11' E 002°33'612.3
2017-May-22 18:00N 37°10' E 002°25'612.1
2017-May-22 17:30N 37°10' E 002°17'612.0
2017-May-22 17:00N 37°09' E 002°10'612.2
2017-May-22 16:30N 37°09' E 002°02'612.3
2017-May-22 16:00N 37°08' E 001°55'612.5
2017-May-22 15:30N 37°07' E 001°47'612.4
2017-May-22 15:00N 37°06' E 001°39'612.5
2017-May-22 14:30N 37°05' E 001°31'33112.6
2017-May-21 12:08N 35°60' W 005°13'212.7
2017-May-21 12:00N 35°60' W 005°15'713.2
2017-May-21 11:30N 35°58' W 005°23'1711.5
2017-May-21 10:04N 35°54' W 005°43'110.3
2017-May-21 10:00N 35°54' W 005°44'66 9.9
2017-May-21 03:19N 35°30' W 006°59'311.1
2017-May-21 03:00N 35°28' W 007°03'611.4
2017-May-21 02:29N 35°24' W 007°08'611.6
2017-May-21 02:00N 35°20' W 007°13'3011.6
2017-May-20 23:26N 34°59' W 007°39'511.7
2017-May-20 23:00N 34°56' W 007°43'611.9
2017-May-20 22:30N 34°52' W 007°49'712.0
2017-May-20 21:57N 34°47' W 007°55'512.0
2017-May-20 21:30N 34°43' W 007°59'612.4
2017-May-20 20:59N 34°39' W 008°05'612.5
2017-May-20 20:29N 34°35' W 008°10'612.7
2017-May-20 19:59N 34°30' W 008°16'612.8
2017-May-20 19:30N 34°26' W 008°21'612.8
2017-May-20 19:00N 34°22' W 008°27'613.0
2017-May-20 18:30N 34°17' W 008°33'713.0
2017-May-20 18:00N 34°13' W 008°39'612.9
2017-May-20 17:30N 34°08' W 008°44'712.9
2017-May-20 17:00N 34°04' W 008°50'6112.4
2017-May-20 12:04N 33°20' W 009°41'111.6
2017-May-20 12:00N 33°19' W 009°42'2111.6
2017-May-20 10:12N 33°03' W 009°57'292 9.3
2017-May-19 02:42N 29°46' W 014°09'16 7.5
2017-May-19 00:33N 29°36' W 014°24'1 6.4
2017-May-19 00:25N 29°36' W 014°25'58 8.2
2017-May-18 17:19N 28°57' W 015°14'3 9.6
2017-May-18 17:00N 28°55' W 015°17'5 9.5
2017-May-18 16:31N 28°52' W 015°21'5 9.9
2017-May-18 15:58N 28°48' W 015°26'510.3
2017-May-18 15:29N 28°45' W 015°30'510.6
2017-May-18 15:01N 28°41' W 015°34'1110.7
2017-May-18 14:00N 28°34' W 015°43'510.5
2017-May-18 13:30N 28°30' W 015°46'611.1
2017-May-18 13:00N 28°25' W 015°50'511.0
2017-May-18 12:30N 28°21' W 015°54'611.0
2017-May-18 11:58N 28°17' W 015°58'510.9
2017-May-18 11:28N 28°12' W 016°02'610.9
2017-May-18 10:57N 28°08' W 016°06'510.9
2017-May-18 10:27N 28°04' W 016°10'1010.4
2017-May-18 09:31N 27°56' W 016°17'110.1
2017-May-18 09:26N 27°56' W 016°18'  
Track history (hours):
 
Tides and Currents Weather Stations Pressure Air Temp Water Temp Dewpoint Dewpoint Depression Visibility Wind Speed Wind Dir Waves Ship Positions

Emmanuel Tomasos

Last reported at 2017-May-26 06:18 UTC. Time now 2017-May-28 12:33 UTC.
Position N 37°44' E 024°19'.

Length 182 m; draft 7 m.

Type: Tanker. MMSI: 311459000.

Date/timePositionNaut miles runAvg speedWind from/ knotsBaromVisibWave heightAir tempDewpointWater temp
2017-May-26 06:18N 37°44' E 024°19'1113.0
2017-May-26 05:29N 37°37' E 024°10'44112.0
2017-May-24 16:52N 36°08' E 015°10'513.7
2017-May-24 16:30N 36°10' E 015°04'713.8
2017-May-24 16:00N 36°12' E 014°56'714.1
2017-May-24 15:30N 36°15' E 014°47'713.9
2017-May-24 15:00N 36°17' E 014°39'713.9
2017-May-24 14:30N 36°19' E 014°31'1413.7
2017-May-24 13:30N 36°24' E 014°15'713.7
2017-May-24 13:00N 36°26' E 014°07'713.7
2017-May-24 12:30N 36°29' E 013°59'713.7
2017-May-24 12:00N 36°31' E 013°51'714.0
2017-May-24 11:30N 36°34' E 013°43'713.8
2017-May-24 11:00N 36°36' E 013°35'813.8
2017-May-24 10:27N 36°39' E 013°26'613.8
2017-May-24 10:00N 36°41' E 013°19'713.7
2017-May-24 09:30N 36°44' E 013°11'913.8
2017-May-24 08:53N 36°47' E 013°01'514.1
2017-May-24 08:30N 36°49' E 012°55'814.2
2017-May-24 07:56N 36°51' E 012°45'714.5
2017-May-24 07:27N 36°54' E 012°37'5013.9
2017-May-24 03:52N 37°12' E 011°39'613.2
2017-May-24 03:26N 37°14' E 011°32'1313.2
2017-May-24 02:25N 37°20' E 011°17'613.4
2017-May-24 02:00N 37°22' E 011°11'713.8
2017-May-24 01:28N 37°25' E 011°02'1014.2
2017-May-24 00:45N 37°28' E 010°50'5314.1
2017-May-23 21:00N 37°35' E 009°44'6313.3
2017-May-23 16:16N 37°37' E 008°25'413.3
2017-May-23 16:00N 37°37' E 008°21'12013.0
2017-May-23 06:46N 37°26' E 005°50'1412.6
2017-May-23 05:41N 37°24' E 005°33'612.8
2017-May-23 05:12N 37°24' E 005°26'312.7
2017-May-23 05:00N 37°24' E 005°22'612.8
2017-May-23 04:30N 37°23' E 005°14'612.6
2017-May-23 04:00N 37°23' E 005°07'612.9
2017-May-23 03:30N 37°22' E 004°58'713.0
2017-May-23 03:00N 37°21' E 004°50'613.0
2017-May-23 02:30N 37°21' E 004°42'713.1
2017-May-23 02:00N 37°20' E 004°34'713.1
2017-May-23 01:30N 37°20' E 004°26'613.1
2017-May-23 01:00N 37°19' E 004°18'713.2
2017-May-23 00:30N 37°18' E 004°09'713.0
2017-May-23 00:00N 37°18' E 004°01'613.0
2017-May-22 23:30N 37°17' E 003°53'713.1
2017-May-22 23:00N 37°17' E 003°45'713.0
2017-May-22 22:30N 37°16' E 003°37'713.0
2017-May-22 22:00N 37°15' E 003°28'612.9
2017-May-22 21:30N 37°15' E 003°20'712.9
2017-May-22 21:00N 37°14' E 003°12'612.8
2017-May-22 20:30N 37°14' E 003°04'612.8
2017-May-22 20:00N 37°13' E 002°56'612.8
2017-May-22 19:30N 37°12' E 002°48'612.8
2017-May-22 19:00N 37°12' E 002°40'612.6
2017-May-22 18:30N 37°11' E 002°33'612.3
2017-May-22 18:00N 37°10' E 002°25'612.1
2017-May-22 17:30N 37°10' E 002°17'612.0
2017-May-22 17:00N 37°09' E 002°10'612.2
2017-May-22 16:30N 37°09' E 002°02'612.3
2017-May-22 16:00N 37°08' E 001°55'612.5
2017-May-22 15:30N 37°07' E 001°47'612.4
2017-May-22 15:00N 37°06' E 001°39'612.5
2017-May-22 14:30N 37°05' E 001°31'33112.6
2017-May-21 12:08N 35°60' W 005°13'212.7
2017-May-21 12:00N 35°60' W 005°15'713.2
2017-May-21 11:30N 35°58' W 005°23'1711.5
2017-May-21 10:04N 35°54' W 005°43'110.3
2017-May-21 10:00N 35°54' W 005°44'66 9.9
2017-May-21 03:19N 35°30' W 006°59'311.1
2017-May-21 03:00N 35°28' W 007°03'611.4
2017-May-21 02:29N 35°24' W 007°08'611.6
2017-May-21 02:00N 35°20' W 007°13'3011.6
2017-May-20 23:26N 34°59' W 007°39'511.7
2017-May-20 23:00N 34°56' W 007°43'611.9
2017-May-20 22:30N 34°52' W 007°49'712.0
2017-May-20 21:57N 34°47' W 007°55'512.0
2017-May-20 21:30N 34°43' W 007°59'612.4
2017-May-20 20:59N 34°39' W 008°05'612.5
2017-May-20 20:29N 34°35' W 008°10'612.7
2017-May-20 19:59N 34°30' W 008°16'612.8
2017-May-20 19:30N 34°26' W 008°21'612.8
2017-May-20 19:00N 34°22' W 008°27'613.0
2017-May-20 18:30N 34°17' W 008°33'713.0
2017-May-20 18:00N 34°13' W 008°39'612.9
2017-May-20 17:30N 34°08' W 008°44'712.9
2017-May-20 17:00N 34°04' W 008°50'6112.4
2017-May-20 12:04N 33°20' W 009°41'111.6
2017-May-20 12:00N 33°19' W 009°42'2111.6
2017-May-20 10:12N 33°03' W 009°57'292 9.3
2017-May-19 02:42N 29°46' W 014°09'16 7.5
2017-May-19 00:33N 29°36' W 014°24'1 6.4
2017-May-19 00:25N 29°36' W 014°25'58 8.2
2017-May-18 17:19N 28°57' W 015°14'3 9.6
2017-May-18 17:00N 28°55' W 015°17'5 9.5
2017-May-18 16:31N 28°52' W 015°21'5 9.9
2017-May-18 15:58N 28°48' W 015°26'510.3
2017-May-18 15:29N 28°45' W 015°30'510.6
2017-May-18 15:01N 28°41' W 015°34'1110.7
2017-May-18 14:00N 28°34' W 015°43'510.5
2017-May-18 13:30N 28°30' W 015°46'611.1
2017-May-18 13:00N 28°25' W 015°50'511.0
2017-May-18 12:30N 28°21' W 015°54'611.0
2017-May-18 11:58N 28°17' W 015°58'510.9
2017-May-18 11:28N 28°12' W 016°02'610.9
2017-May-18 10:57N 28°08' W 016°06'510.9
2017-May-18 10:27N 28°04' W 016°10'1010.4
2017-May-18 09:31N 27°56' W 016°17'110.1
2017-May-18 09:26N 27°56' W 016°18'  

Dump ship's entire track history